sensor_id;sensor_type;location;lat;lon;timestamp;P1;durP1;ratioP1;P2;durP2;ratioP2
45476;SDS011;31958;51.756;-2.556;2022-08-19T00:01:25;2.42;;;1.52;;
45476;SDS011;31958;51.756;-2.556;2022-08-19T00:03:51;5.97;;;1.30;;
45476;SDS011;31958;51.756;-2.556;2022-08-19T00:06:16;4.65;;;1.70;;
45476;SDS011;31958;51.756;-2.556;2022-08-19T00:08:41;4.57;;;1.63;;
45476;SDS011;31958;51.756;-2.556;2022-08-19T00:11:07;3.75;;;1.85;;
45476;SDS011;31958;51.756;-2.556;2022-08-19T00:13:33;2.47;;;1.13;;
45476;SDS011;31958;51.756;-2.556;2022-08-19T00:15:58;2.67;;;1.10;;
45476;SDS011;31958;51.756;-2.556;2022-08-19T00:18:24;3.42;;;1.30;;
45476;SDS011;31958;51.756;-2.556;2022-08-19T00:20:50;3.33;;;1.00;;
45476;SDS011;31958;51.756;-2.556;2022-08-19T00:23:15;2.40;;;1.10;;
45476;SDS011;31958;51.756;-2.556;2022-08-19T00:25:41;2.03;;;0.85;;
45476;SDS011;31958;51.756;-2.556;2022-08-19T00:28:06;1.90;;;0.98;;
45476;SDS011;31958;51.756;-2.556;2022-08-19T00:30:31;2.42;;;1.10;;
45476;SDS011;31958;51.756;-2.556;2022-08-19T00:32:57;2.40;;;1.00;;
45476;SDS011;31958;51.756;-2.556;2022-08-19T00:35:22;3.17;;;1.25;;
45476;SDS011;31958;51.756;-2.556;2022-08-19T00:37:48;2.80;;;1.15;;
45476;SDS011;31958;51.756;-2.556;2022-08-19T00:40:13;4.50;;;1.10;;
45476;SDS011;31958;51.756;-2.556;2022-08-19T00:42:39;3.15;;;1.30;;
45476;SDS011;31958;51.756;-2.556;2022-08-19T00:45:09;3.88;;;1.00;;
45476;SDS011;31958;51.756;-2.556;2022-08-19T00:47:34;2.78;;;1.10;;
45476;SDS011;31958;51.756;-2.556;2022-08-19T00:49:59;2.35;;;1.13;;
45476;SDS011;31958;51.756;-2.556;2022-08-19T00:52:34;2.78;;;1.17;;
45476;SDS011;31958;51.756;-2.556;2022-08-19T00:55:02;4.35;;;1.20;;
45476;SDS011;31958;51.756;-2.556;2022-08-19T00:57:35;2.33;;;1.13;;
45476;SDS011;31958;51.756;-2.556;2022-08-19T01:00:03;4.97;;;1.20;;
45476;SDS011;31958;51.756;-2.556;2022-08-19T01:02:30;2.97;;;1.30;;
45476;SDS011;31958;51.756;-2.556;2022-08-19T01:04:55;2.35;;;1.02;;
45476;SDS011;31958;51.756;-2.556;2022-08-19T01:07:21;6.80;;;1.40;;
45476;SDS011;31958;51.756;-2.556;2022-08-19T01:09:46;3.15;;;1.45;;
45476;SDS011;31958;51.756;-2.556;2022-08-19T01:12:12;2.42;;;1.40;;
45476;SDS011;31958;51.756;-2.556;2022-08-19T01:14:39;2.10;;;1.20;;
45476;SDS011;31958;51.756;-2.556;2022-08-19T01:17:04;5.00;;;1.95;;
45476;SDS011;31958;51.756;-2.556;2022-08-19T01:19:32;4.13;;;1.88;;
45476;SDS011;31958;51.756;-2.556;2022-08-19T01:22:19;4.50;;;2.00;;
45476;SDS011;31958;51.756;-2.556;2022-08-19T01:24:46;5.60;;;2.00;;
45476;SDS011;31958;51.756;-2.556;2022-08-19T01:27:11;7.28;;;2.38;;
45476;SDS011;31958;51.756;-2.556;2022-08-19T01:29:38;4.55;;;2.20;;
45476;SDS011;31958;51.756;-2.556;2022-08-19T01:32:04;4.70;;;2.03;;
45476;SDS011;31958;51.756;-2.556;2022-08-19T01:34:29;4.78;;;2.33;;
45476;SDS011;31958;51.756;-2.556;2022-08-19T01:36:54;8.68;;;2.25;;
45476;SDS011;31958;51.756;-2.556;2022-08-19T01:39:21;9.23;;;2.00;;
45476;SDS011;31958;51.756;-2.556;2022-08-19T01:41:47;5.78;;;2.28;;
45476;SDS011;31958;51.756;-2.556;2022-08-19T01:44:13;4.80;;;2.35;;
45476;SDS011;31958;51.756;-2.556;2022-08-19T01:46:38;6.95;;;2.35;;
45476;SDS011;31958;51.756;-2.556;2022-08-19T01:49:04;5.07;;;2.70;;
45476;SDS011;31958;51.756;-2.556;2022-08-19T01:51:30;6.88;;;2.63;;
45476;SDS011;31958;51.756;-2.556;2022-08-19T01:53:56;8.43;;;2.78;;
45476;SDS011;31958;51.756;-2.556;2022-08-19T01:56:21;6.22;;;3.03;;
45476;SDS011;31958;51.756;-2.556;2022-08-19T01:59:09;7.72;;;3.40;;
45476;SDS011;31958;51.756;-2.556;2022-08-19T02:01:32;11.88;;;4.57;;
45476;SDS011;31958;51.756;-2.556;2022-08-19T02:03:59;9.30;;;4.53;;
45476;SDS011;31958;51.756;-2.556;2022-08-19T02:06:25;14.30;;;4.60;;
45476;SDS011;31958;51.756;-2.556;2022-08-19T02:08:51;10.55;;;4.57;;
45476;SDS011;31958;51.756;-2.556;2022-08-19T02:11:20;10.02;;;4.93;;
45476;SDS011;31958;51.756;-2.556;2022-08-19T02:13:46;10.32;;;4.40;;
45476;SDS011;31958;51.756;-2.556;2022-08-19T02:16:11;13.35;;;5.22;;
45476;SDS011;31958;51.756;-2.556;2022-08-19T02:18:36;14.57;;;5.22;;
45476;SDS011;31958;51.756;-2.556;2022-08-19T02:21:02;12.52;;;4.53;;
45476;SDS011;31958;51.756;-2.556;2022-08-19T02:23:27;11.63;;;5.10;;
45476;SDS011;31958;51.756;-2.556;2022-08-19T02:25:52;9.75;;;4.40;;
45476;SDS011;31958;51.756;-2.556;2022-08-19T02:28:18;10.15;;;3.60;;
45476;SDS011;31958;51.756;-2.556;2022-08-19T02:30:43;12.70;;;4.63;;
45476;SDS011;31958;51.756;-2.556;2022-08-19T02:33:08;12.85;;;4.80;;
45476;SDS011;31958;51.756;-2.556;2022-08-19T02:35:34;12.18;;;4.10;;
45476;SDS011;31958;51.756;-2.556;2022-08-19T02:37:59;9.27;;;3.95;;
45476;SDS011;31958;51.756;-2.556;2022-08-19T02:40:48;27.67;;;4.78;;
45476;SDS011;31958;51.756;-2.556;2022-08-19T02:43:14;12.38;;;4.78;;
45476;SDS011;31958;51.756;-2.556;2022-08-19T02:45:40;12.18;;;4.95;;
45476;SDS011;31958;51.756;-2.556;2022-08-19T02:48:06;12.18;;;5.07;;
45476;SDS011;31958;51.756;-2.556;2022-08-19T02:50:31;19.98;;;5.22;;
45476;SDS011;31958;51.756;-2.556;2022-08-19T02:52:56;12.15;;;4.93;;
45476;SDS011;31958;51.756;-2.556;2022-08-19T02:55:22;10.90;;;5.22;;
45476;SDS011;31958;51.756;-2.556;2022-08-19T02:57:47;13.82;;;5.60;;
45476;SDS011;31958;51.756;-2.556;2022-08-19T03:00:13;20.35;;;5.57;;
45476;SDS011;31958;51.756;-2.556;2022-08-19T03:02:38;14.52;;;5.00;;
45476;SDS011;31958;51.756;-2.556;2022-08-19T03:05:04;12.18;;;5.13;;
45476;SDS011;31958;51.756;-2.556;2022-08-19T03:07:30;16.88;;;4.85;;
45476;SDS011;31958;51.756;-2.556;2022-08-19T03:09:55;12.45;;;4.85;;
45476;SDS011;31958;51.756;-2.556;2022-08-19T03:12:21;13.27;;;4.88;;
45476;SDS011;31958;51.756;-2.556;2022-08-19T03:14:46;10.90;;;4.93;;
45476;SDS011;31958;51.756;-2.556;2022-08-19T03:17:11;10.80;;;4.38;;
45476;SDS011;31958;51.756;-2.556;2022-08-19T03:19:37;13.63;;;4.57;;
45476;SDS011;31958;51.756;-2.556;2022-08-19T03:22:03;10.77;;;4.10;;
45476;SDS011;31958;51.756;-2.556;2022-08-19T03:24:29;8.10;;;3.85;;
45476;SDS011;31958;51.756;-2.556;2022-08-19T03:26:55;13.85;;;3.75;;
45476;SDS011;31958;51.756;-2.556;2022-08-19T03:29:22;18.40;;;4.63;;
45476;SDS011;31958;51.756;-2.556;2022-08-19T03:31:48;8.80;;;3.88;;
45476;SDS011;31958;51.756;-2.556;2022-08-19T03:34:14;11.00;;;4.07;;
45476;SDS011;31958;51.756;-2.556;2022-08-19T03:36:40;13.52;;;3.85;;
45476;SDS011;31958;51.756;-2.556;2022-08-19T03:39:05;8.70;;;4.35;;
45476;SDS011;31958;51.756;-2.556;2022-08-19T03:41:37;12.13;;;4.00;;
45476;SDS011;31958;51.756;-2.556;2022-08-19T03:44:03;7.47;;;3.78;;
45476;SDS011;31958;51.756;-2.556;2022-08-19T03:46:31;10.90;;;4.10;;
45476;SDS011;31958;51.756;-2.556;2022-08-19T03:48:57;13.88;;;4.30;;
45476;SDS011;31958;51.756;-2.556;2022-08-19T03:51:24;19.20;;;4.60;;
45476;SDS011;31958;51.756;-2.556;2022-08-19T03:53:50;14.60;;;4.45;;
45476;SDS011;31958;51.756;-2.556;2022-08-19T03:56:15;10.00;;;4.13;;
45476;SDS011;31958;51.756;-2.556;2022-08-19T03:58:41;8.45;;;3.80;;
45476;SDS011;31958;51.756;-2.556;2022-08-19T04:01:07;11.80;;;4.97;;
45476;SDS011;31958;51.756;-2.556;2022-08-19T04:03:33;14.05;;;4.63;;
45476;SDS011;31958;51.756;-2.556;2022-08-19T04:05:59;18.83;;;5.78;;
45476;SDS011;31958;51.756;-2.556;2022-08-19T04:08:24;11.90;;;4.75;;
45476;SDS011;31958;51.756;-2.556;2022-08-19T04:10:50;11.45;;;4.32;;
45476;SDS011;31958;51.756;-2.556;2022-08-19T04:13:16;22.05;;;4.85;;
45476;SDS011;31958;51.756;-2.556;2022-08-19T04:15:42;22.83;;;5.22;;
45476;SDS011;31958;51.756;-2.556;2022-08-19T04:18:08;16.30;;;4.68;;
45476;SDS011;31958;51.756;-2.556;2022-08-19T04:20:43;14.82;;;5.00;;
45476;SDS011;31958;51.756;-2.556;2022-08-19T04:23:09;14.05;;;5.00;;
45476;SDS011;31958;51.756;-2.556;2022-08-19T04:25:35;13.55;;;4.05;;
45476;SDS011;31958;51.756;-2.556;2022-08-19T04:28:01;17.90;;;5.30;;
45476;SDS011;31958;51.756;-2.556;2022-08-19T04:30:26;16.17;;;5.05;;
45476;SDS011;31958;51.756;-2.556;2022-08-19T04:32:52;16.38;;;5.07;;
45476;SDS011;31958;51.756;-2.556;2022-08-19T04:35:17;11.43;;;5.00;;
45476;SDS011;31958;51.756;-2.556;2022-08-19T04:37:42;17.50;;;5.30;;
45476;SDS011;31958;51.756;-2.556;2022-08-19T04:40:08;15.48;;;4.60;;
45476;SDS011;31958;51.756;-2.556;2022-08-19T04:42:52;12.15;;;4.55;;
45476;SDS011;31958;51.756;-2.556;2022-08-19T04:45:18;16.55;;;4.93;;
45476;SDS011;31958;51.756;-2.556;2022-08-19T04:47:43;19.90;;;5.03;;
45476;SDS011;31958;51.756;-2.556;2022-08-19T04:50:10;21.20;;;4.65;;
45476;SDS011;31958;51.756;-2.556;2022-08-19T04:52:36;19.38;;;4.47;;
45476;SDS011;31958;51.756;-2.556;2022-08-19T04:55:01;16.30;;;4.25;;
45476;SDS011;31958;51.756;-2.556;2022-08-19T04:57:26;15.30;;;4.80;;
45476;SDS011;31958;51.756;-2.556;2022-08-19T04:59:55;20.58;;;5.10;;
45476;SDS011;31958;51.756;-2.556;2022-08-19T05:02:21;23.80;;;5.78;;
45476;SDS011;31958;51.756;-2.556;2022-08-19T05:04:49;20.85;;;5.13;;
45476;SDS011;31958;51.756;-2.556;2022-08-19T05:07:15;20.95;;;5.53;;
45476;SDS011;31958;51.756;-2.556;2022-08-19T05:09:40;21.98;;;4.68;;
45476;SDS011;31958;51.756;-2.556;2022-08-19T05:12:05;21.75;;;4.75;;
45476;SDS011;31958;51.756;-2.556;2022-08-19T05:14:31;15.25;;;4.82;;
45476;SDS011;31958;51.756;-2.556;2022-08-19T05:16:56;11.57;;;4.45;;
45476;SDS011;31958;51.756;-2.556;2022-08-19T05:19:21;15.98;;;4.78;;
45476;SDS011;31958;51.756;-2.556;2022-08-19T05:22:05;23.58;;;5.50;;
45476;SDS011;31958;51.756;-2.556;2022-08-19T05:24:49;17.60;;;5.22;;
45476;SDS011;31958;51.756;-2.556;2022-08-19T05:27:14;15.32;;;4.57;;
45476;SDS011;31958;51.756;-2.556;2022-08-19T05:29:39;20.67;;;5.18;;
45476;SDS011;31958;51.756;-2.556;2022-08-19T05:32:05;18.92;;;4.90;;
45476;SDS011;31958;51.756;-2.556;2022-08-19T05:34:34;23.42;;;5.07;;
45476;SDS011;31958;51.756;-2.556;2022-08-19T05:37:00;18.75;;;4.82;;
45476;SDS011;31958;51.756;-2.556;2022-08-19T05:39:27;18.67;;;4.63;;
45476;SDS011;31958;51.756;-2.556;2022-08-19T05:41:57;21.35;;;4.63;;
45476;SDS011;31958;51.756;-2.556;2022-08-19T05:44:23;16.45;;;4.75;;
45476;SDS011;31958;51.756;-2.556;2022-08-19T05:46:48;23.65;;;5.07;;
45476;SDS011;31958;51.756;-2.556;2022-08-19T05:49:15;25.77;;;5.15;;
45476;SDS011;31958;51.756;-2.556;2022-08-19T05:51:40;17.20;;;4.57;;
45476;SDS011;31958;51.756;-2.556;2022-08-19T05:54:06;22.77;;;4.80;;
45476;SDS011;31958;51.756;-2.556;2022-08-19T05:56:32;14.77;;;4.88;;
45476;SDS011;31958;51.756;-2.556;2022-08-19T05:58:59;16.60;;;5.63;;
45476;SDS011;31958;51.756;-2.556;2022-08-19T06:01:26;6.18;;;3.10;;
45476;SDS011;31958;51.756;-2.556;2022-08-19T06:03:51;88.82;;;7.03;;
45476;SDS011;31958;51.756;-2.556;2022-08-19T06:06:17;189.43;;;11.45;;
45476;SDS011;31958;51.756;-2.556;2022-08-19T06:08:43;33.58;;;3.33;;
45476;SDS011;31958;51.756;-2.556;2022-08-19T06:11:31;76.37;;;4.93;;
45476;SDS011;31958;51.756;-2.556;2022-08-19T06:13:59;26.25;;;2.30;;
45476;SDS011;31958;51.756;-2.556;2022-08-19T06:16:24;8.90;;;1.50;;
45476;SDS011;31958;51.756;-2.556;2022-08-19T06:18:53;4.93;;;1.58;;
45476;SDS011;31958;51.756;-2.556;2022-08-19T06:21:23;10.68;;;1.38;;
45476;SDS011;31958;51.756;-2.556;2022-08-19T06:23:48;6.00;;;1.27;;
45476;SDS011;31958;51.756;-2.556;2022-08-19T06:26:16;5.03;;;1.50;;
45476;SDS011;31958;51.756;-2.556;2022-08-19T06:28:41;5.70;;;1.25;;
45476;SDS011;31958;51.756;-2.556;2022-08-19T06:31:10;2.97;;;1.25;;
45476;SDS011;31958;51.756;-2.556;2022-08-19T06:33:35;5.75;;;1.35;;
45476;SDS011;31958;51.756;-2.556;2022-08-19T06:36:00;3.83;;;1.13;;
45476;SDS011;31958;51.756;-2.556;2022-08-19T06:38:26;4.65;;;1.48;;
45476;SDS011;31958;51.756;-2.556;2022-08-19T06:40:59;6.20;;;1.27;;
45476;SDS011;31958;51.756;-2.556;2022-08-19T06:43:24;7.40;;;1.30;;
45476;SDS011;31958;51.756;-2.556;2022-08-19T06:45:49;7.25;;;1.77;;
45476;SDS011;31958;51.756;-2.556;2022-08-19T06:48:16;11.48;;;1.98;;
45476;SDS011;31958;51.756;-2.556;2022-08-19T06:50:42;9.98;;;2.00;;
45476;SDS011;31958;51.756;-2.556;2022-08-19T06:53:07;9.57;;;1.45;;
45476;SDS011;31958;51.756;-2.556;2022-08-19T06:55:32;4.88;;;1.48;;
45476;SDS011;31958;51.756;-2.556;2022-08-19T06:57:57;8.98;;;1.85;;
45476;SDS011;31958;51.756;-2.556;2022-08-19T07:00:26;4.50;;;1.45;;
45476;SDS011;31958;51.756;-2.556;2022-08-19T07:02:51;6.18;;;1.67;;
45476;SDS011;31958;51.756;-2.556;2022-08-19T07:05:18;9.43;;;1.77;;
45476;SDS011;31958;51.756;-2.556;2022-08-19T07:07:43;7.07;;;2.05;;
45476;SDS011;31958;51.756;-2.556;2022-08-19T07:10:08;6.75;;;1.67;;
45476;SDS011;31958;51.756;-2.556;2022-08-19T07:12:34;9.57;;;2.13;;
45476;SDS011;31958;51.756;-2.556;2022-08-19T07:15:00;8.23;;;1.67;;
45476;SDS011;31958;51.756;-2.556;2022-08-19T07:17:25;8.95;;;2.03;;
45476;SDS011;31958;51.756;-2.556;2022-08-19T07:19:51;14.35;;;1.90;;
45476;SDS011;31958;51.756;-2.556;2022-08-19T07:22:16;8.30;;;2.17;;
45476;SDS011;31958;51.756;-2.556;2022-08-19T07:24:42;8.25;;;2.30;;
45476;SDS011;31958;51.756;-2.556;2022-08-19T07:27:08;11.40;;;2.25;;
45476;SDS011;31958;51.756;-2.556;2022-08-19T07:29:35;8.38;;;2.38;;
45476;SDS011;31958;51.756;-2.556;2022-08-19T07:32:00;12.73;;;2.38;;
45476;SDS011;31958;51.756;-2.556;2022-08-19T07:34:27;11.30;;;2.78;;
45476;SDS011;31958;51.756;-2.556;2022-08-19T07:36:53;10.95;;;2.13;;
45476;SDS011;31958;51.756;-2.556;2022-08-19T07:39:20;10.98;;;2.42;;
45476;SDS011;31958;51.756;-2.556;2022-08-19T07:41:46;9.77;;;2.55;;
45476;SDS011;31958;51.756;-2.556;2022-08-19T07:44:12;10.00;;;2.50;;
45476;SDS011;31958;51.756;-2.556;2022-08-19T07:46:38;15.82;;;2.70;;
45476;SDS011;31958;51.756;-2.556;2022-08-19T07:49:05;10.05;;;2.83;;
45476;SDS011;31958;51.756;-2.556;2022-08-19T07:51:30;9.20;;;2.80;;
45476;SDS011;31958;51.756;-2.556;2022-08-19T07:53:56;8.77;;;2.58;;
45476;SDS011;31958;51.756;-2.556;2022-08-19T07:56:21;12.52;;;2.40;;
45476;SDS011;31958;51.756;-2.556;2022-08-19T07:58:47;17.55;;;3.15;;
45476;SDS011;31958;51.756;-2.556;2022-08-19T08:01:17;11.00;;;2.97;;
45476;SDS011;31958;51.756;-2.556;2022-08-19T08:03:43;8.85;;;2.33;;
45476;SDS011;31958;51.756;-2.556;2022-08-19T08:06:27;10.57;;;3.03;;
45476;SDS011;31958;51.756;-2.556;2022-08-19T08:09:11;9.07;;;2.72;;
45476;SDS011;31958;51.756;-2.556;2022-08-19T08:11:45;9.55;;;2.83;;
45476;SDS011;31958;51.756;-2.556;2022-08-19T08:14:15;13.02;;;2.80;;
45476;SDS011;31958;51.756;-2.556;2022-08-19T08:16:41;11.15;;;3.30;;
45476;SDS011;31958;51.756;-2.556;2022-08-19T08:19:08;13.23;;;2.83;;
45476;SDS011;31958;51.756;-2.556;2022-08-19T08:21:34;9.15;;;2.72;;
45476;SDS011;31958;51.756;-2.556;2022-08-19T08:23:59;10.32;;;2.60;;
45476;SDS011;31958;51.756;-2.556;2022-08-19T08:26:24;8.77;;;2.10;;
45476;SDS011;31958;51.756;-2.556;2022-08-19T08:28:50;8.85;;;2.65;;
45476;SDS011;31958;51.756;-2.556;2022-08-19T08:31:15;10.68;;;2.60;;
45476;SDS011;31958;51.756;-2.556;2022-08-19T08:33:41;9.73;;;2.60;;
45476;SDS011;31958;51.756;-2.556;2022-08-19T08:36:08;7.95;;;2.15;;
45476;SDS011;31958;51.756;-2.556;2022-08-19T08:38:33;15.07;;;2.92;;
45476;SDS011;31958;51.756;-2.556;2022-08-19T08:41:01;14.23;;;2.78;;
45476;SDS011;31958;51.756;-2.556;2022-08-19T08:46:01;9.77;;;2.17;;
45476;SDS011;31958;51.756;-2.556;2022-08-19T08:50:56;9.82;;;2.80;;
45476;SDS011;31958;51.756;-2.556;2022-08-19T08:53:22;12.38;;;2.50;;
45476;SDS011;31958;51.756;-2.556;2022-08-19T08:55:48;12.75;;;2.67;;
45476;SDS011;31958;51.756;-2.556;2022-08-19T08:58:16;12.40;;;3.00;;
45476;SDS011;31958;51.756;-2.556;2022-08-19T09:00:44;9.90;;;2.28;;
45476;SDS011;31958;51.756;-2.556;2022-08-19T09:03:14;8.43;;;2.60;;
45476;SDS011;31958;51.756;-2.556;2022-08-19T09:10:58;10.50;;;2.70;;
45476;SDS011;31958;51.756;-2.556;2022-08-19T09:15:53;8.68;;;2.70;;
45476;SDS011;31958;51.756;-2.556;2022-08-19T09:18:20;10.20;;;2.47;;
45476;SDS011;31958;51.756;-2.556;2022-08-19T09:20:45;11.52;;;2.90;;
45476;SDS011;31958;51.756;-2.556;2022-08-19T09:23:14;13.10;;;2.60;;
45476;SDS011;31958;51.756;-2.556;2022-08-19T09:25:40;9.07;;;2.90;;
45476;SDS011;31958;51.756;-2.556;2022-08-19T09:28:05;14.77;;;2.95;;
45476;SDS011;31958;51.756;-2.556;2022-08-19T09:30:33;11.32;;;2.78;;
45476;SDS011;31958;51.756;-2.556;2022-08-19T09:32:59;9.38;;;2.33;;
45476;SDS011;31958;51.756;-2.556;2022-08-19T09:35:25;10.50;;;2.60;;
45476;SDS011;31958;51.756;-2.556;2022-08-19T09:37:51;12.13;;;2.60;;
45476;SDS011;31958;51.756;-2.556;2022-08-19T09:40:17;10.23;;;2.72;;
45476;SDS011;31958;51.756;-2.556;2022-08-19T09:42:43;12.77;;;2.88;;
45476;SDS011;31958;51.756;-2.556;2022-08-19T09:45:09;12.00;;;2.75;;
45476;SDS011;31958;51.756;-2.556;2022-08-19T09:47:34;8.82;;;2.55;;
45476;SDS011;31958;51.756;-2.556;2022-08-19T09:50:03;6.03;;;1.75;;
45476;SDS011;31958;51.756;-2.556;2022-08-19T09:52:28;11.23;;;2.50;;
45476;SDS011;31958;51.756;-2.556;2022-08-19T09:54:54;7.97;;;2.20;;
45476;SDS011;31958;51.756;-2.556;2022-08-19T09:57:19;10.93;;;2.60;;
45476;SDS011;31958;51.756;-2.556;2022-08-19T09:59:44;10.60;;;2.50;;
45476;SDS011;31958;51.756;-2.556;2022-08-19T10:02:10;7.28;;;1.73;;
45476;SDS011;31958;51.756;-2.556;2022-08-19T10:04:35;11.25;;;2.47;;
45476;SDS011;31958;51.756;-2.556;2022-08-19T10:07:19;12.68;;;2.20;;
45476;SDS011;31958;51.756;-2.556;2022-08-19T10:09:44;10.02;;;2.25;;
45476;SDS011;31958;51.756;-2.556;2022-08-19T10:12:10;9.57;;;2.00;;
45476;SDS011;31958;51.756;-2.556;2022-08-19T10:14:35;10.05;;;2.00;;
45476;SDS011;31958;51.756;-2.556;2022-08-19T10:17:00;6.38;;;1.85;;
45476;SDS011;31958;51.756;-2.556;2022-08-19T10:19:28;8.80;;;2.03;;
45476;SDS011;31958;51.756;-2.556;2022-08-19T10:21:57;7.95;;;2.00;;
45476;SDS011;31958;51.756;-2.556;2022-08-19T10:24:23;9.63;;;1.70;;
45476;SDS011;31958;51.756;-2.556;2022-08-19T10:26:49;10.23;;;2.13;;
45476;SDS011;31958;51.756;-2.556;2022-08-19T10:29:14;10.25;;;1.90;;
45476;SDS011;31958;51.756;-2.556;2022-08-19T10:31:41;9.10;;;2.03;;
45476;SDS011;31958;51.756;-2.556;2022-08-19T10:34:07;9.27;;;1.92;;
45476;SDS011;31958;51.756;-2.556;2022-08-19T10:36:33;8.60;;;2.15;;
45476;SDS011;31958;51.756;-2.556;2022-08-19T10:39:01;10.15;;;2.22;;
45476;SDS011;31958;51.756;-2.556;2022-08-19T10:41:28;10.98;;;2.60;;
45476;SDS011;31958;51.756;-2.556;2022-08-19T10:43:57;18.55;;;2.85;;
45476;SDS011;31958;51.756;-2.556;2022-08-19T10:46:23;9.38;;;1.58;;
45476;SDS011;31958;51.756;-2.556;2022-08-19T10:48:50;13.25;;;2.50;;
45476;SDS011;31958;51.756;-2.556;2022-08-19T10:51:16;8.63;;;1.98;;
45476;SDS011;31958;51.756;-2.556;2022-08-19T10:54:05;8.57;;;1.67;;
45476;SDS011;31958;51.756;-2.556;2022-08-19T10:56:31;7.13;;;1.95;;
45476;SDS011;31958;51.756;-2.556;2022-08-19T10:59:18;8.15;;;1.60;;
45476;SDS011;31958;51.756;-2.556;2022-08-19T11:01:49;8.80;;;1.88;;
45476;SDS011;31958;51.756;-2.556;2022-08-19T11:04:18;9.38;;;1.55;;
45476;SDS011;31958;51.756;-2.556;2022-08-19T11:06:45;7.38;;;1.55;;
45476;SDS011;31958;51.756;-2.556;2022-08-19T11:09:12;6.05;;;1.85;;
45476;SDS011;31958;51.756;-2.556;2022-08-19T11:11:39;8.32;;;1.73;;
45476;SDS011;31958;51.756;-2.556;2022-08-19T11:14:07;10.55;;;2.17;;
45476;SDS011;31958;51.756;-2.556;2022-08-19T11:16:33;9.00;;;1.90;;
45476;SDS011;31958;51.756;-2.556;2022-08-19T11:18:58;7.22;;;1.85;;
45476;SDS011;31958;51.756;-2.556;2022-08-19T11:21:25;4.85;;;1.63;;
45476;SDS011;31958;51.756;-2.556;2022-08-19T11:23:52;7.30;;;1.80;;
45476;SDS011;31958;51.756;-2.556;2022-08-19T11:26:18;8.32;;;1.88;;
45476;SDS011;31958;51.756;-2.556;2022-08-19T11:28:43;10.80;;;1.92;;
45476;SDS011;31958;51.756;-2.556;2022-08-19T11:31:17;8.93;;;1.67;;
45476;SDS011;31958;51.756;-2.556;2022-08-19T11:33:42;9.75;;;1.55;;
45476;SDS011;31958;51.756;-2.556;2022-08-19T11:36:08;9.55;;;2.00;;
45476;SDS011;31958;51.756;-2.556;2022-08-19T11:38:34;5.63;;;1.38;;
45476;SDS011;31958;51.756;-2.556;2022-08-19T11:41:01;6.55;;;1.42;;
45476;SDS011;31958;51.756;-2.556;2022-08-19T11:43:27;5.38;;;1.35;;
45476;SDS011;31958;51.756;-2.556;2022-08-19T11:45:53;6.30;;;1.60;;
45476;SDS011;31958;51.756;-2.556;2022-08-19T11:48:19;7.88;;;1.60;;
45476;SDS011;31958;51.756;-2.556;2022-08-19T11:50:51;6.05;;;1.40;;
45476;SDS011;31958;51.756;-2.556;2022-08-19T11:53:17;5.05;;;1.27;;
45476;SDS011;31958;51.756;-2.556;2022-08-19T11:55:45;6.47;;;1.67;;
45476;SDS011;31958;51.756;-2.556;2022-08-19T11:58:11;7.00;;;1.33;;
45476;SDS011;31958;51.756;-2.556;2022-08-19T12:00:37;4.63;;;1.35;;
45476;SDS011;31958;51.756;-2.556;2022-08-19T12:03:03;5.07;;;1.20;;
45476;SDS011;31958;51.756;-2.556;2022-08-19T12:05:28;10.25;;;1.38;;
45476;SDS011;31958;51.756;-2.556;2022-08-19T12:07:53;4.97;;;1.45;;
45476;SDS011;31958;51.756;-2.556;2022-08-19T12:10:19;5.50;;;1.17;;
45476;SDS011;31958;51.756;-2.556;2022-08-19T12:12:44;5.97;;;1.20;;
45476;SDS011;31958;51.756;-2.556;2022-08-19T12:15:10;7.38;;;1.30;;
45476;SDS011;31958;51.756;-2.556;2022-08-19T12:17:36;6.15;;;1.45;;
45476;SDS011;31958;51.756;-2.556;2022-08-19T12:20:02;6.70;;;1.30;;
45476;SDS011;31958;51.756;-2.556;2022-08-19T12:22:28;4.82;;;1.42;;
45476;SDS011;31958;51.756;-2.556;2022-08-19T12:24:53;8.32;;;1.25;;
45476;SDS011;31958;51.756;-2.556;2022-08-19T12:27:19;8.38;;;1.58;;
45476;SDS011;31958;51.756;-2.556;2022-08-19T12:29:45;4.60;;;1.30;;
45476;SDS011;31958;51.756;-2.556;2022-08-19T12:32:10;8.43;;;1.40;;
45476;SDS011;31958;51.756;-2.556;2022-08-19T12:34:35;5.68;;;1.20;;
45476;SDS011;31958;51.756;-2.556;2022-08-19T12:37:02;6.50;;;1.13;;
45476;SDS011;31958;51.756;-2.556;2022-08-19T12:39:28;5.75;;;1.30;;
45476;SDS011;31958;51.756;-2.556;2022-08-19T12:41:55;5.25;;;1.30;;
45476;SDS011;31958;51.756;-2.556;2022-08-19T12:44:21;5.72;;;1.20;;
45476;SDS011;31958;51.756;-2.556;2022-08-19T12:46:47;4.55;;;1.25;;
45476;SDS011;31958;51.756;-2.556;2022-08-19T12:49:12;7.72;;;1.50;;
45476;SDS011;31958;51.756;-2.556;2022-08-19T12:51:37;6.90;;;1.60;;
45476;SDS011;31958;51.756;-2.556;2022-08-19T12:54:03;7.32;;;1.60;;
45476;SDS011;31958;51.756;-2.556;2022-08-19T12:56:29;5.18;;;1.10;;
45476;SDS011;31958;51.756;-2.556;2022-08-19T12:58:55;4.68;;;1.23;;
45476;SDS011;31958;51.756;-2.556;2022-08-19T13:01:20;6.40;;;1.52;;
45476;SDS011;31958;51.756;-2.556;2022-08-19T13:03:46;9.18;;;1.80;;
45476;SDS011;31958;51.756;-2.556;2022-08-19T13:06:11;5.85;;;1.10;;
45476;SDS011;31958;51.756;-2.556;2022-08-19T13:08:37;9.23;;;1.55;;
45476;SDS011;31958;51.756;-2.556;2022-08-19T13:11:16;8.60;;;1.63;;
45476;SDS011;31958;51.756;-2.556;2022-08-19T13:13:43;4.75;;;1.25;;
45476;SDS011;31958;51.756;-2.556;2022-08-19T13:16:09;10.55;;;1.60;;
45476;SDS011;31958;51.756;-2.556;2022-08-19T13:18:36;8.57;;;1.50;;
45476;SDS011;31958;51.756;-2.556;2022-08-19T13:21:05;5.72;;;1.65;;
45476;SDS011;31958;51.756;-2.556;2022-08-19T13:23:31;12.93;;;2.40;;
45476;SDS011;31958;51.756;-2.556;2022-08-19T13:25:59;8.52;;;1.30;;
45476;SDS011;31958;51.756;-2.556;2022-08-19T13:28:25;6.93;;;1.70;;
45476;SDS011;31958;51.756;-2.556;2022-08-19T13:30:51;6.70;;;1.38;;
45476;SDS011;31958;51.756;-2.556;2022-08-19T13:33:35;8.27;;;1.50;;
45476;SDS011;31958;51.756;-2.556;2022-08-19T13:36:00;7.70;;;1.80;;
45476;SDS011;31958;51.756;-2.556;2022-08-19T13:38:26;7.50;;;2.08;;
45476;SDS011;31958;51.756;-2.556;2022-08-19T13:40:52;8.85;;;1.63;;
45476;SDS011;31958;51.756;-2.556;2022-08-19T13:43:19;9.55;;;1.83;;
45476;SDS011;31958;51.756;-2.556;2022-08-19T13:45:46;8.23;;;1.70;;
45476;SDS011;31958;51.756;-2.556;2022-08-19T13:48:12;10.40;;;2.03;;
45476;SDS011;31958;51.756;-2.556;2022-08-19T13:50:38;11.00;;;2.00;;
45476;SDS011;31958;51.756;-2.556;2022-08-19T13:53:05;11.55;;;1.90;;
45476;SDS011;31958;51.756;-2.556;2022-08-19T13:55:31;15.23;;;2.28;;
45476;SDS011;31958;51.756;-2.556;2022-08-19T13:57:57;10.55;;;1.92;;
45476;SDS011;31958;51.756;-2.556;2022-08-19T14:00:23;8.60;;;2.03;;
45476;SDS011;31958;51.756;-2.556;2022-08-19T14:02:51;9.98;;;1.48;;
45476;SDS011;31958;51.756;-2.556;2022-08-19T14:05:17;8.55;;;1.98;;
45476;SDS011;31958;51.756;-2.556;2022-08-19T14:07:42;9.63;;;1.52;;
45476;SDS011;31958;51.756;-2.556;2022-08-19T14:10:08;10.40;;;1.52;;
45476;SDS011;31958;51.756;-2.556;2022-08-19T14:12:34;14.40;;;2.25;;
45476;SDS011;31958;51.756;-2.556;2022-08-19T14:15:00;12.25;;;1.90;;
45476;SDS011;31958;51.756;-2.556;2022-08-19T14:17:25;8.52;;;2.10;;
45476;SDS011;31958;51.756;-2.556;2022-08-19T14:19:57;7.18;;;2.00;;
45476;SDS011;31958;51.756;-2.556;2022-08-19T14:22:22;6.82;;;1.80;;
45476;SDS011;31958;51.756;-2.556;2022-08-19T14:24:47;7.47;;;1.50;;
45476;SDS011;31958;51.756;-2.556;2022-08-19T14:27:13;9.45;;;1.75;;
45476;SDS011;31958;51.756;-2.556;2022-08-19T14:29:39;9.30;;;1.80;;
45476;SDS011;31958;51.756;-2.556;2022-08-19T14:32:05;10.40;;;2.00;;
45476;SDS011;31958;51.756;-2.556;2022-08-19T14:34:30;6.68;;;1.83;;
45476;SDS011;31958;51.756;-2.556;2022-08-19T14:36:56;7.45;;;1.38;;
45476;SDS011;31958;51.756;-2.556;2022-08-19T14:39:22;9.25;;;1.70;;